createdAt,value
2023-05-02T00:00:45.474Z,21.00
2023-05-02T00:03:14.222Z,19.67
2023-05-02T00:05:43.007Z,20.10
2023-05-02T00:08:11.991Z,21.97
2023-05-02T00:10:41.701Z,21.70
2023-05-02T00:13:09.951Z,22.10
2023-05-02T00:15:38.302Z,21.50
2023-05-02T00:18:06.712Z,21.90
2023-05-02T00:20:35.004Z,25.57
2023-05-02T00:23:03.250Z,22.80
2023-05-02T00:25:31.673Z,24.17
2023-05-02T00:28:01.322Z,22.80
2023-05-02T00:30:29.775Z,23.57
2023-05-02T00:32:58.363Z,22.27
2023-05-02T00:35:26.819Z,25.20
2023-05-02T00:37:55.084Z,23.07
2023-05-02T00:40:23.345Z,22.90
2023-05-02T00:42:51.576Z,25.00
2023-05-02T00:45:21.237Z,25.10
2023-05-02T00:47:50.635Z,24.20
2023-05-02T00:50:19.426Z,23.13
2023-05-02T00:52:48.332Z,22.73
2023-05-02T00:55:16.831Z,24.17
2023-05-02T00:57:45.355Z,26.80
2023-05-02T01:00:15.134Z,27.00
2023-05-02T01:02:53.462Z,28.17
2023-05-02T01:05:28.946Z,25.33
2023-05-02T01:08:11.717Z,25.30
2023-05-02T01:10:53.831Z,25.20
2023-05-02T01:13:25.411Z,27.90
2023-05-02T01:15:55.238Z,28.23
2023-05-02T01:18:27.127Z,27.13
2023-05-02T01:21:00.261Z,25.97
2023-05-02T01:23:36.204Z,28.23
2023-05-02T01:26:16.193Z,25.17
2023-05-02T01:28:58.436Z,26.90
2023-05-02T01:31:28.396Z,25.73
2023-05-02T01:33:59.916Z,24.97
2023-05-02T01:36:31.592Z,25.43
2023-05-02T01:39:01.835Z,24.43
2023-05-02T01:41:32.547Z,23.00
2023-05-02T01:44:04.938Z,28.00
2023-05-02T01:46:38.209Z,25.13
2023-05-02T01:49:09.307Z,28.10
2023-05-02T01:51:44.233Z,26.93
2023-05-02T01:54:15.050Z,26.53
2023-05-02T01:56:45.559Z,24.03
2023-05-02T01:59:19.554Z,25.37
2023-05-02T02:01:49.526Z,22.80
2023-05-02T02:04:20.586Z,25.27
2023-05-02T02:06:55.139Z,21.73
2023-05-02T02:09:23.484Z,23.07
2023-05-02T02:11:57.416Z,22.50
2023-05-02T02:14:32.812Z,22.07
2023-05-02T02:17:06.356Z,21.63
2023-05-02T02:19:35.407Z,23.10
2023-05-02T02:22:06.188Z,23.70
2023-05-02T02:24:36.661Z,22.43
2023-05-02T02:27:05.129Z,22.87
2023-05-02T02:29:36.782Z,22.47
2023-05-02T02:32:05.164Z,22.27
2023-05-02T02:34:33.416Z,21.10
2023-05-02T02:37:06.079Z,20.47
2023-05-02T02:39:47.935Z,21.37
2023-05-02T02:42:24.017Z,21.80
2023-05-02T02:45:05.967Z,20.50
2023-05-02T02:47:43.385Z,19.27
2023-05-02T02:50:17.767Z,18.13
2023-05-02T02:52:54.791Z,17.27
2023-05-02T02:55:33.084Z,19.47
2023-05-02T02:58:08.574Z,19.43
2023-05-02T03:00:38.595Z,19.50
2023-05-02T03:03:09.018Z,19.97
2023-05-02T03:05:37.708Z,18.87
2023-05-02T03:08:06.675Z,21.17
2023-05-02T03:10:35.566Z,19.00
2023-05-02T03:13:04.089Z,17.83
2023-05-02T03:16:06.059Z,19.57
2023-05-02T03:18:35.807Z,21.03
2023-05-02T03:21:04.349Z,17.27
2023-05-02T03:23:33.123Z,20.83
2023-05-02T03:26:01.389Z,18.30
2023-05-02T03:28:29.787Z,17.40
2023-05-02T03:30:58.956Z,16.63
2023-05-02T03:33:28.112Z,18.10
2023-05-02T03:35:57.879Z,20.47
2023-05-02T03:38:26.849Z,19.17
2023-05-02T03:40:58.456Z,17.50
2023-05-02T03:43:27.842Z,18.07
2023-05-02T03:45:57.158Z,18.20
2023-05-02T03:48:27.440Z,17.30
2023-05-02T03:50:57.163Z,18.20
2023-05-02T03:53:25.998Z,17.00
2023-05-02T03:55:59.157Z,15.23
2023-05-02T03:58:38.259Z,15.67
2023-05-02T04:01:14.993Z,25.33
2023-05-02T04:03:44.960Z,20.17
2023-05-02T04:06:16.783Z,25.80
2023-05-02T04:08:48.656Z,23.13
2023-05-02T04:11:16.910Z,17.93
2023-05-02T04:13:45.606Z,16.57
2023-05-02T04:16:13.916Z,16.67
2023-05-02T04:18:42.318Z,15.90
2023-05-02T04:21:12.394Z,18.00
2023-05-02T04:23:42.425Z,17.03
2023-05-02T04:26:10.785Z,18.17
2023-05-02T04:28:46.207Z,18.57
2023-05-02T04:31:17.039Z,19.73
2023-05-02T04:33:48.937Z,19.60
2023-05-02T04:36:20.794Z,19.00
2023-05-02T04:38:50.711Z,18.50
2023-05-02T04:41:19.545Z,18.40
2023-05-02T04:43:53.971Z,19.73
2023-05-02T04:46:22.419Z,21.07
2023-05-02T04:48:51.004Z,20.23
2023-05-02T04:51:19.602Z,18.87
2023-05-02T04:53:52.014Z,19.00
2023-05-02T04:56:21.872Z,19.73
2023-05-02T04:58:51.459Z,19.73
2023-05-02T05:01:19.860Z,19.63
2023-05-02T05:03:49.343Z,19.00
2023-05-02T05:06:19.392Z,20.23
2023-05-02T05:08:48.361Z,17.20
2023-05-02T05:11:19.533Z,18.10
2023-05-02T05:13:48.409Z,19.20
2023-05-02T05:16:17.736Z,21.17
2023-05-02T05:18:47.304Z,21.50
2023-05-02T05:21:16.560Z,34.20
2023-05-02T05:23:46.266Z,21.23
2023-05-02T05:26:20.969Z,19.70
2023-05-02T05:28:51.329Z,18.47
2023-05-02T05:31:22.621Z,18.70
2023-05-02T05:33:54.891Z,17.67
2023-05-02T05:36:24.485Z,18.50
2023-05-02T05:38:52.983Z,17.63
2023-05-02T05:41:24.731Z,18.07
2023-05-02T05:43:59.511Z,16.43
2023-05-02T05:46:29.187Z,13.80
2023-05-02T05:48:57.796Z,15.10
2023-05-02T05:51:28.755Z,10.93
2023-05-02T05:53:59.766Z,7.03
2023-05-02T05:56:29.776Z,4.70
2023-05-02T05:59:14.420Z,16.30
2023-05-02T06:01:42.899Z,9.00
2023-05-02T06:04:12.123Z,3.67
2023-05-02T06:06:43.594Z,4.17
2023-05-02T06:09:11.920Z,4.23
2023-05-02T06:11:41.568Z,3.40
2023-05-02T06:14:10.189Z,3.00
2023-05-02T06:16:38.687Z,3.07
2023-05-02T06:19:07.984Z,3.63
2023-05-02T06:21:37.868Z,2.87
2023-05-02T06:24:06.914Z,3.73
2023-05-02T06:26:35.264Z,4.20
2023-05-02T06:29:04.985Z,3.33
2023-05-02T06:31:33.388Z,2.83
2023-05-02T06:34:01.747Z,2.00
2023-05-02T06:36:30.053Z,2.80
2023-05-02T06:38:58.279Z,3.10
2023-05-02T06:41:26.626Z,2.47
2023-05-02T06:43:54.940Z,2.90
2023-05-02T06:46:24.606Z,3.17
2023-05-02T06:48:52.884Z,3.80
2023-05-02T06:51:22.476Z,2.90
2023-05-02T06:53:50.766Z,3.23
2023-05-02T06:56:19.128Z,1.87
2023-05-02T06:58:47.377Z,2.50
2023-05-02T07:01:15.823Z,3.23
2023-05-02T07:03:47.618Z,2.17
2023-05-02T07:06:16.068Z,2.80
2023-05-02T07:08:44.462Z,2.50
2023-05-02T07:11:12.703Z,2.50
2023-05-02T07:13:41.057Z,2.40
2023-05-02T07:16:09.675Z,2.20
2023-05-02T07:18:38.131Z,2.80
2023-05-02T07:21:08.591Z,2.37
2023-05-02T07:23:37.025Z,2.80
2023-05-02T07:26:07.227Z,15.00
2023-05-02T07:28:35.921Z,6.50
2023-05-02T07:31:04.519Z,4.83
2023-05-02T07:33:32.848Z,3.13
2023-05-02T07:36:03.336Z,3.60
2023-05-02T07:38:33.026Z,1.93
2023-05-02T07:41:02.061Z,1.90
2023-05-02T07:43:30.447Z,2.07
2023-05-02T07:45:58.796Z,1.90
2023-05-02T07:48:27.892Z,2.07
2023-05-02T07:50:56.324Z,2.30
2023-05-02T07:53:24.655Z,14.33
2023-05-02T07:55:54.408Z,16.10
2023-05-02T07:58:22.876Z,7.27
2023-05-02T08:00:51.353Z,2.20
2023-05-02T08:03:19.733Z,1.67
2023-05-02T08:05:48.129Z,1.60
2023-05-02T08:08:16.598Z,2.63
2023-05-02T08:10:46.993Z,2.40
2023-05-02T08:13:16.645Z,2.30
2023-05-02T08:15:45.111Z,2.47
2023-05-02T08:18:13.836Z,2.57
2023-05-02T08:20:42.114Z,2.60
2023-05-02T08:23:10.680Z,3.20
2023-05-02T08:25:38.957Z,2.60
2023-05-02T08:28:07.217Z,2.67
2023-05-02T08:30:36.861Z,2.60
2023-05-02T08:33:05.436Z,2.50
2023-05-02T08:35:33.819Z,2.83
2023-05-02T08:38:02.179Z,2.37
2023-05-02T08:43:07.172Z,2.17
2023-05-02T08:45:41.758Z,2.23
2023-05-02T08:48:11.850Z,2.77
2023-05-02T08:50:42.420Z,11.20
2023-05-02T08:53:11.503Z,9.40
2023-05-02T08:55:41.405Z,3.90
2023-05-02T08:58:10.788Z,2.47
2023-05-02T09:00:43.136Z,2.83
2023-05-02T09:03:23.738Z,2.60
2023-05-02T09:05:55.222Z,2.07
2023-05-02T09:08:24.812Z,1.83
2023-05-02T09:10:53.352Z,2.13
2023-05-02T09:13:36.689Z,1.90
2023-05-02T09:16:08.207Z,1.90
2023-05-02T09:18:37.928Z,2.57
2023-05-02T09:21:08.997Z,1.83
2023-05-02T09:23:39.178Z,2.10
2023-05-02T09:26:18.641Z,2.50
2023-05-02T09:28:48.121Z,2.27
2023-05-02T09:31:37.433Z,2.30
2023-05-02T09:34:11.506Z,2.50
2023-05-02T09:36:43.766Z,3.27
2023-05-02T09:39:13.643Z,2.80
2023-05-02T09:41:42.913Z,2.80
2023-05-02T09:44:12.606Z,2.27
2023-05-02T09:46:46.716Z,2.20
2023-05-02T09:49:18.753Z,2.30
2023-05-02T09:51:48.542Z,3.70
2023-05-02T09:54:37.064Z,2.90
2023-05-02T09:57:07.299Z,2.30
2023-05-02T09:59:35.819Z,2.67
2023-05-02T10:02:09.627Z,2.20
2023-05-02T10:04:40.023Z,3.10
2023-05-02T10:07:10.988Z,2.20
2023-05-02T10:09:44.753Z,2.93
2023-05-02T10:12:16.796Z,4.20
2023-05-02T10:14:50.778Z,2.50
2023-05-02T10:17:28.116Z,3.30
2023-05-02T10:20:01.768Z,2.93
2023-05-02T10:22:31.140Z,2.60
2023-05-02T10:25:01.133Z,7.80
2023-05-02T10:27:32.081Z,12.80
2023-05-02T10:30:02.444Z,6.60
2023-05-02T10:32:35.128Z,3.03
2023-05-02T10:35:05.624Z,2.40
2023-05-02T10:37:37.138Z,2.40
2023-05-02T10:40:06.975Z,2.20
2023-05-02T10:42:38.920Z,2.30
2023-05-02T10:45:13.289Z,2.87
2023-05-02T10:47:43.273Z,2.60
2023-05-02T10:50:11.940Z,2.60
2023-05-02T10:52:41.226Z,2.00
2023-05-02T10:55:21.050Z,2.40
2023-05-02T10:58:23.745Z,2.80
2023-05-02T11:00:52.196Z,2.57
2023-05-02T11:03:56.944Z,2.53
2023-05-02T11:06:26.082Z,2.80
2023-05-02T11:08:54.802Z,2.70
2023-05-02T11:11:42.642Z,2.40
2023-05-02T11:14:11.608Z,2.27
2023-05-02T11:17:08.804Z,2.93
2023-05-02T11:20:27.824Z,2.13
2023-05-02T11:23:22.642Z,1.63
2023-05-02T11:25:52.343Z,2.27
2023-05-02T11:28:47.868Z,2.03
2023-05-02T11:32:04.928Z,2.60
2023-05-02T11:34:45.009Z,2.30
2023-05-02T11:37:14.540Z,2.60
2023-05-02T11:39:44.320Z,2.40
2023-05-02T11:42:28.606Z,2.00
2023-05-02T11:44:58.241Z,6.77
2023-05-02T11:47:29.547Z,10.80
2023-05-02T11:50:00.252Z,3.23
2023-05-02T11:52:28.682Z,2.90
2023-05-02T11:54:58.576Z,2.73
2023-05-02T11:57:27.971Z,2.80
2023-05-02T11:59:58.919Z,2.30
2023-05-02T12:02:38.143Z,2.30
2023-05-02T12:05:07.629Z,2.07
2023-05-02T12:07:37.911Z,1.93
2023-05-02T12:10:09.403Z,2.13
2023-05-02T12:12:38.039Z,2.07
2023-05-02T12:15:07.449Z,3.07
2023-05-02T12:17:38.897Z,2.20
2023-05-02T12:20:09.128Z,2.93
2023-05-02T12:22:37.973Z,3.17
2023-05-02T12:25:09.248Z,2.10
2023-05-02T12:27:38.033Z,2.00
2023-05-02T12:30:07.593Z,2.60
2023-05-02T12:32:37.827Z,2.37
2023-05-02T12:35:07.655Z,1.83
2023-05-02T12:37:36.100Z,1.90
2023-05-02T12:40:05.161Z,1.90
2023-05-02T12:42:35.576Z,2.70
2023-05-02T12:45:03.927Z,1.97
2023-05-02T12:47:46.358Z,1.80
2023-05-02T12:50:15.014Z,2.00
2023-05-02T12:52:51.371Z,2.40
2023-05-02T12:55:20.316Z,3.07
2023-05-02T12:57:50.210Z,2.33
2023-05-02T13:00:19.270Z,2.10
2023-05-02T13:02:47.689Z,1.60
2023-05-02T13:05:16.466Z,1.73
2023-05-02T13:07:45.198Z,2.20
2023-05-02T13:10:13.844Z,1.90
2023-05-02T13:12:43.761Z,2.00
2023-05-02T13:15:15.167Z,2.37
2023-05-02T13:17:43.956Z,1.77
2023-05-02T13:20:13.535Z,2.07
2023-05-02T13:22:41.879Z,1.87
2023-05-02T13:25:10.721Z,1.80
2023-05-02T13:27:39.052Z,1.70
2023-05-02T13:30:09.789Z,2.07
2023-05-02T13:32:40.237Z,2.03
2023-05-02T13:35:09.834Z,1.47
2023-05-02T13:37:38.260Z,1.30
2023-05-02T13:40:08.104Z,2.27
2023-05-02T13:42:36.677Z,1.83
2023-05-02T13:45:06.572Z,2.57
2023-05-02T13:47:34.929Z,2.10
2023-05-02T13:50:04.982Z,2.50
2023-05-02T13:52:33.422Z,2.33
2023-05-02T13:55:02.298Z,2.70
2023-05-02T13:57:30.857Z,2.43
2023-05-02T13:59:59.126Z,2.80
2023-05-02T14:02:27.648Z,1.90
2023-05-02T14:04:56.044Z,1.97
2023-05-02T14:07:25.744Z,2.47
2023-05-02T14:09:54.033Z,2.40
2023-05-02T14:12:22.447Z,2.93
2023-05-02T14:14:50.850Z,2.90
2023-05-02T14:17:19.260Z,3.03
2023-05-02T14:19:47.478Z,8.73
2023-05-02T14:22:16.005Z,7.80
2023-05-02T14:24:45.929Z,3.30
2023-05-02T14:27:18.515Z,2.73
2023-05-02T14:29:46.957Z,2.40
2023-05-02T14:32:15.647Z,2.13
2023-05-02T14:34:43.886Z,2.43
2023-05-02T14:37:12.166Z,2.70
2023-05-02T14:39:42.522Z,2.97
2023-05-02T14:42:12.155Z,2.43
2023-05-02T14:44:40.494Z,2.13
2023-05-02T14:47:08.908Z,2.57
2023-05-02T14:49:37.348Z,3.20
2023-05-02T14:52:05.846Z,2.50
2023-05-02T14:54:34.161Z,2.00
2023-05-02T14:57:03.664Z,2.60
2023-05-02T14:59:33.600Z,2.10
2023-05-02T15:02:02.052Z,8.00
2023-05-02T15:04:31.192Z,10.43
2023-05-02T15:07:01.122Z,6.80
2023-05-02T15:09:29.639Z,4.97
2023-05-02T15:11:58.306Z,3.53
2023-05-02T15:14:26.927Z,2.70
2023-05-02T15:16:56.677Z,2.10
2023-05-02T15:19:25.180Z,2.37
2023-05-02T15:21:54.714Z,2.30
2023-05-02T15:24:23.016Z,2.40
2023-05-02T15:26:51.424Z,1.93
2023-05-02T15:29:19.873Z,2.23
2023-05-02T15:31:48.254Z,1.73
2023-05-02T15:34:18.014Z,1.90
2023-05-02T15:36:46.308Z,2.70
2023-05-02T15:39:14.644Z,3.20
2023-05-02T15:41:43.612Z,5.83
2023-05-02T15:44:11.948Z,6.13
2023-05-02T15:46:41.065Z,4.60
2023-05-02T15:49:09.474Z,2.60
2023-05-02T15:51:39.094Z,2.80
2023-05-02T15:54:07.742Z,2.20
2023-05-02T15:56:36.151Z,1.90
2023-05-02T15:59:04.564Z,2.70
2023-05-02T16:01:32.943Z,2.07
2023-05-02T16:04:01.343Z,3.13
2023-05-02T16:06:31.022Z,2.87
2023-05-02T16:09:02.878Z,2.70
2023-05-02T16:11:31.964Z,2.90
2023-05-02T16:14:00.703Z,2.87
2023-05-02T16:16:29.430Z,2.63
2023-05-02T16:18:57.711Z,2.80
2023-05-02T16:21:26.172Z,2.80
2023-05-02T16:23:55.064Z,3.07
2023-05-02T16:26:24.746Z,3.00
2023-05-02T16:28:53.195Z,2.77
2023-05-02T16:31:21.613Z,2.50
2023-05-02T16:33:50.920Z,2.17
2023-05-02T16:36:19.770Z,2.50
2023-05-02T16:38:48.104Z,2.20
2023-05-02T16:41:16.411Z,2.20
2023-05-02T16:43:46.912Z,2.10
2023-05-02T16:46:15.168Z,3.03
2023-05-02T16:48:43.512Z,3.30
2023-05-02T16:51:11.782Z,2.30
2023-05-02T16:53:40.105Z,2.50
2023-05-02T16:56:08.945Z,2.37
2023-05-02T16:58:37.213Z,2.20
2023-05-02T17:01:07.198Z,1.93
2023-05-02T17:03:35.667Z,7.57
2023-05-02T17:06:04.277Z,6.90
2023-05-02T17:08:32.825Z,5.53
2023-05-02T17:11:01.486Z,3.87
2023-05-02T17:13:29.781Z,3.20
2023-05-02T17:15:58.270Z,3.57
2023-05-02T17:18:28.266Z,2.97
2023-05-02T17:20:56.767Z,2.43
2023-05-02T17:23:25.403Z,3.10
2023-05-02T17:25:53.589Z,2.23
2023-05-02T17:28:22.031Z,2.60
2023-05-02T17:30:54.570Z,2.17
2023-05-02T17:33:23.152Z,2.97
2023-05-02T17:35:52.908Z,2.40
2023-05-02T17:38:21.352Z,1.77
2023-05-02T17:40:49.653Z,2.17
2023-05-02T17:43:18.009Z,2.70
2023-05-02T17:45:46.544Z,2.20
2023-05-02T17:48:15.179Z,2.60
2023-05-02T17:50:44.226Z,2.50
2023-05-02T17:53:15.523Z,2.07
2023-05-02T17:55:44.091Z,2.77
2023-05-02T17:58:12.449Z,2.60
2023-05-02T18:00:40.840Z,2.30
2023-05-02T18:03:09.247Z,3.23
2023-05-02T18:05:41.065Z,4.57
2023-05-02T18:08:09.347Z,6.87
2023-05-02T18:10:39.516Z,4.80
2023-05-02T18:13:07.943Z,3.67
2023-05-02T18:15:36.254Z,2.90
2023-05-02T18:18:04.825Z,2.23
2023-05-02T18:20:33.333Z,2.43
2023-05-02T18:23:02.331Z,3.03
2023-05-02T18:25:34.497Z,2.13
2023-05-02T18:28:04.235Z,2.77
2023-05-02T18:30:32.639Z,2.63
2023-05-02T18:33:01.523Z,2.63
2023-05-02T18:35:30.154Z,2.50
2023-05-02T18:37:58.610Z,2.60
2023-05-02T18:40:27.278Z,2.37
2023-05-02T18:42:55.611Z,3.20
2023-05-02T18:45:25.478Z,3.10
2023-05-02T18:47:54.273Z,3.00
2023-05-02T18:50:23.147Z,3.10
2023-05-02T18:52:51.543Z,2.80
2023-05-02T18:55:22.728Z,2.50
2023-05-02T18:57:51.804Z,2.90
2023-05-02T19:00:20.945Z,2.80
2023-05-02T19:02:53.481Z,2.70
2023-05-02T19:05:21.787Z,2.77
2023-05-02T19:07:50.122Z,3.03
2023-05-02T19:10:18.606Z,2.53
2023-05-02T19:12:47.843Z,2.87
2023-05-02T19:15:16.470Z,2.57
2023-05-02T19:17:45.343Z,2.87
2023-05-02T19:20:15.519Z,2.53
2023-05-02T19:22:46.152Z,2.70
2023-05-02T19:25:15.093Z,2.90
2023-05-02T19:27:47.764Z,3.10
2023-05-02T19:30:16.421Z,2.43
2023-05-02T19:32:44.790Z,3.20
2023-05-02T19:35:15.656Z,3.07
2023-05-02T19:37:44.671Z,2.70
2023-05-02T19:40:14.129Z,2.93
2023-05-02T19:42:42.474Z,3.90
2023-05-02T19:45:13.905Z,3.97
2023-05-02T19:47:43.891Z,2.97
2023-05-02T19:50:14.122Z,3.63
2023-05-02T19:52:44.510Z,4.07
2023-05-02T19:55:12.835Z,4.40
2023-05-02T19:57:44.189Z,6.10
2023-05-02T20:00:14.100Z,9.20
2023-05-02T20:02:42.554Z,8.13
2023-05-02T20:05:11.411Z,8.40
2023-05-02T20:07:41.568Z,7.07
2023-05-02T20:10:10.836Z,7.07
2023-05-02T20:12:39.222Z,6.70
2023-05-02T20:15:08.453Z,7.97
2023-05-02T20:17:36.825Z,6.50
2023-05-02T20:20:08.202Z,5.47
2023-05-02T20:22:36.566Z,4.90
2023-05-02T20:25:07.329Z,4.20
2023-05-02T20:27:35.805Z,3.43
2023-05-02T20:30:04.847Z,3.97
2023-05-02T20:32:33.341Z,3.30
2023-05-02T20:35:01.690Z,3.40
2023-05-02T20:37:30.790Z,3.63
2023-05-02T20:39:59.528Z,3.20
2023-05-02T20:42:29.445Z,4.13
2023-05-02T20:44:58.688Z,3.57
2023-05-02T20:47:28.675Z,3.73
2023-05-02T20:49:57.825Z,3.77
2023-05-02T20:52:26.241Z,3.77
2023-05-02T20:54:55.601Z,4.00
2023-05-02T20:57:24.440Z,3.83
2023-05-02T20:59:54.535Z,3.50
2023-05-02T21:02:22.987Z,4.23
2023-05-02T21:04:51.299Z,3.50
2023-05-02T21:07:19.761Z,4.03
2023-05-02T21:09:48.350Z,3.50
2023-05-02T21:12:16.667Z,4.07
2023-05-02T21:14:45.060Z,3.30
2023-05-02T21:17:14.731Z,3.00
2023-05-02T21:19:43.164Z,3.07
2023-05-02T21:22:11.553Z,2.93
2023-05-02T21:24:39.879Z,3.33
2023-05-02T21:27:08.283Z,3.13
2023-05-02T21:29:36.782Z,2.57
2023-05-02T21:32:06.003Z,2.63
2023-05-02T21:34:35.862Z,3.40
2023-05-02T21:37:04.255Z,3.50
2023-05-02T21:39:32.717Z,4.77
2023-05-02T21:42:01.491Z,4.07
2023-05-02T21:44:29.857Z,3.57
2023-05-02T21:46:58.256Z,3.30
2023-05-02T21:49:26.761Z,3.27
2023-05-02T21:51:58.672Z,3.40
2023-05-02T21:54:27.312Z,4.10
2023-05-02T21:56:56.164Z,4.10
2023-05-02T21:59:24.497Z,3.03
2023-05-02T22:01:52.799Z,3.20
2023-05-02T22:04:21.338Z,3.60
2023-05-02T22:06:53.440Z,2.50
2023-05-02T22:09:23.193Z,3.80
2023-05-02T22:11:51.451Z,2.73
2023-05-02T22:14:20.896Z,2.70
2023-05-02T22:16:50.958Z,2.77
2023-05-02T22:19:19.351Z,3.30
2023-05-02T22:21:47.726Z,2.63
2023-05-02T22:24:16.749Z,2.80
2023-05-02T22:26:48.659Z,3.20
2023-05-02T22:29:16.923Z,3.43
2023-05-02T22:31:47.189Z,3.00
2023-05-02T22:34:15.861Z,3.03
2023-05-02T22:36:44.369Z,2.80
2023-05-02T22:39:14.593Z,2.97
2023-05-02T22:41:43.734Z,2.67
2023-05-02T22:44:13.556Z,2.40
2023-05-02T22:46:41.864Z,2.70
2023-05-02T22:49:10.616Z,3.00
2023-05-02T22:51:40.171Z,2.57
2023-05-02T22:54:08.898Z,2.43
2023-05-02T22:56:37.318Z,2.50
2023-05-02T22:59:05.621Z,2.60
2023-05-02T23:01:35.447Z,2.77
2023-05-02T23:04:04.485Z,2.40
2023-05-02T23:06:32.953Z,2.53
2023-05-02T23:09:01.334Z,2.80
2023-05-02T23:11:29.720Z,2.13
2023-05-02T23:13:57.982Z,2.67
2023-05-02T23:16:26.539Z,2.57
2023-05-02T23:18:56.258Z,3.00
2023-05-02T23:21:24.806Z,2.70
2023-05-02T23:23:53.183Z,2.40
2023-05-02T23:26:21.433Z,2.80
2023-05-02T23:28:49.670Z,2.47
2023-05-02T23:31:18.084Z,3.43
2023-05-02T23:33:47.013Z,3.00
2023-05-02T23:36:16.814Z,2.53
2023-05-02T23:38:45.177Z,3.10
2023-05-02T23:41:13.446Z,2.47
2023-05-02T23:43:42.027Z,3.27
2023-05-02T23:46:10.360Z,3.30
2023-05-02T23:48:38.660Z,2.63
2023-05-02T23:51:07.059Z,2.80
2023-05-02T23:53:36.701Z,3.00
2023-05-02T23:56:05.226Z,3.20
2023-05-02T23:58:33.607Z,2.70
